sensor_id;sensor_type;location;lat;lon;timestamp;temperature;humidity
71184;DHT22;58887;51.980;4.464;2023-11-21T00:00:13;8.86;86.83
71184;DHT22;58887;51.980;4.464;2023-11-21T00:02:39;8.93;86.80
71184;DHT22;58887;51.980;4.464;2023-11-21T00:05:10;9.03;86.77
71184;DHT22;58887;51.980;4.464;2023-11-21T00:07:37;9.12;86.89
71184;DHT22;58887;51.980;4.464;2023-11-21T00:10:03;9.20;86.86
71184;DHT22;58887;51.980;4.464;2023-11-21T00:12:30;9.29;86.83
71184;DHT22;58887;51.980;4.464;2023-11-21T00:14:57;9.30;86.69
71184;DHT22;58887;51.980;4.464;2023-11-21T00:17:23;9.34;86.74
71184;DHT22;58887;51.980;4.464;2023-11-21T00:19:48;9.40;86.74
71184;DHT22;58887;51.980;4.464;2023-11-21T00:22:14;9.47;86.68
71184;DHT22;58887;51.980;4.464;2023-11-21T00:24:39;9.50;86.81
71184;DHT22;58887;51.980;4.464;2023-11-21T00:27:05;9.61;86.78
71184;DHT22;58887;51.980;4.464;2023-11-21T00:29:31;9.63;86.67
71184;DHT22;58887;51.980;4.464;2023-11-21T00:31:56;9.65;86.59
71184;DHT22;58887;51.980;4.464;2023-11-21T00:34:22;9.71;86.53
71184;DHT22;58887;51.980;4.464;2023-11-21T00:36:47;9.74;86.66
71184;DHT22;58887;51.980;4.464;2023-11-21T00:39:13;9.85;86.81
71184;DHT22;58887;51.980;4.464;2023-11-21T00:41:38;9.90;86.73
71184;DHT22;58887;51.980;4.464;2023-11-21T00:44:05;9.92;86.62
71184;DHT22;58887;51.980;4.464;2023-11-21T00:46:31;9.92;86.52
71184;DHT22;58887;51.980;4.464;2023-11-21T00:48:57;9.95;86.63
71184;DHT22;58887;51.980;4.464;2023-11-21T00:51:23;10.02;86.58
71184;DHT22;58887;51.980;4.464;2023-11-21T00:53:48;10.03;86.57
71184;DHT22;58887;51.980;4.464;2023-11-21T00:56:14;10.16;86.71
71184;DHT22;58887;51.980;4.464;2023-11-21T00:58:40;10.16;86.46
71184;DHT22;58887;51.980;4.464;2023-11-21T01:01:09;10.19;86.38
71184;DHT22;58887;51.980;4.464;2023-11-21T01:03:35;10.16;86.33
71184;DHT22;58887;51.980;4.464;2023-11-21T01:06:00;10.19;86.36
71184;DHT22;58887;51.980;4.464;2023-11-21T01:08:26;10.15;86.17
71184;DHT22;58887;51.980;4.464;2023-11-21T01:10:51;10.15;86.54
71184;DHT22;58887;51.980;4.464;2023-11-21T01:13:16;10.18;86.37
71184;DHT22;58887;51.980;4.464;2023-11-21T01:15:42;10.28;86.43
71184;DHT22;58887;51.980;4.464;2023-11-21T01:18:08;10.31;86.53
71184;DHT22;58887;51.980;4.464;2023-11-21T01:20:34;10.33;86.45
71184;DHT22;58887;51.980;4.464;2023-11-21T01:23:00;10.31;86.36
71184;DHT22;58887;51.980;4.464;2023-11-21T01:25:25;10.32;86.52
71184;DHT22;58887;51.980;4.464;2023-11-21T01:27:51;10.35;86.54
71184;DHT22;58887;51.980;4.464;2023-11-21T01:30:18;10.38;86.40
71184;DHT22;58887;51.980;4.464;2023-11-21T01:32:43;10.39;86.32
71184;DHT22;58887;51.980;4.464;2023-11-21T01:35:09;10.38;86.39
71184;DHT22;58887;51.980;4.464;2023-11-21T01:37:36;10.39;86.32
71184;DHT22;58887;51.980;4.464;2023-11-21T01:40:02;10.42;86.36
71184;DHT22;58887;51.980;4.464;2023-11-21T01:42:27;10.43;86.25
71184;DHT22;58887;51.980;4.464;2023-11-21T01:44:54;10.46;86.39
71184;DHT22;58887;51.980;4.464;2023-11-21T01:47:20;10.49;86.48
71184;DHT22;58887;51.980;4.464;2023-11-21T01:49:47;10.48;86.22
71184;DHT22;58887;51.980;4.464;2023-11-21T01:52:12;10.50;86.38
71184;DHT22;58887;51.980;4.464;2023-11-21T01:54:38;10.55;86.37
71184;DHT22;58887;51.980;4.464;2023-11-21T01:57:04;10.53;86.25
71184;DHT22;58887;51.980;4.464;2023-11-21T01:59:38;10.56;86.32
71184;DHT22;58887;51.980;4.464;2023-11-21T02:02:06;10.53;86.23
71184;DHT22;58887;51.980;4.464;2023-11-21T02:04:33;10.55;86.32
71184;DHT22;58887;51.980;4.464;2023-11-21T02:06:59;10.55;86.28
71184;DHT22;58887;51.980;4.464;2023-11-21T02:09:28;10.53;86.25
71184;DHT22;58887;51.980;4.464;2023-11-21T02:11:59;10.50;86.16
71184;DHT22;58887;51.980;4.464;2023-11-21T02:14:25;10.52;86.31
71184;DHT22;58887;51.980;4.464;2023-11-21T02:16:53;10.49;86.47
71184;DHT22;58887;51.980;4.464;2023-11-21T02:19:20;10.53;86.50
71184;DHT22;58887;51.980;4.464;2023-11-21T02:21:49;10.56;86.41
71184;DHT22;58887;51.980;4.464;2023-11-21T02:24:15;10.57;86.36
71184;DHT22;58887;51.980;4.464;2023-11-21T02:26:43;10.57;86.31
71184;DHT22;58887;51.980;4.464;2023-11-21T02:29:08;10.60;86.47
71184;DHT22;58887;51.980;4.464;2023-11-21T02:31:37;10.63;86.48
71184;DHT22;58887;51.980;4.464;2023-11-21T02:34:11;10.60;86.27
71184;DHT22;58887;51.980;4.464;2023-11-21T02:36:38;10.57;86.01
71184;DHT22;58887;51.980;4.464;2023-11-21T02:39:04;10.53;86.09
71184;DHT22;58887;51.980;4.464;2023-11-21T02:41:30;10.50;86.04
71184;DHT22;58887;51.980;4.464;2023-11-21T02:43:55;10.50;86.10
71184;DHT22;58887;51.980;4.464;2023-11-21T02:46:21;10.52;86.22
71184;DHT22;58887;51.980;4.464;2023-11-21T02:48:47;10.52;86.21
71184;DHT22;58887;51.980;4.464;2023-11-21T02:51:12;10.49;86.16
71184;DHT22;58887;51.980;4.464;2023-11-21T02:53:38;10.52;86.28
71184;DHT22;58887;51.980;4.464;2023-11-21T02:56:04;10.56;86.36
71184;DHT22;58887;51.980;4.464;2023-11-21T02:58:30;10.62;86.49
71184;DHT22;58887;51.980;4.464;2023-11-21T03:00:55;10.64;86.33
71184;DHT22;58887;51.980;4.464;2023-11-21T03:03:21;10.69;86.39
71184;DHT22;58887;51.980;4.464;2023-11-21T03:05:49;10.76;86.44
71184;DHT22;58887;51.980;4.464;2023-11-21T03:08:14;10.76;86.44
71184;DHT22;58887;51.980;4.464;2023-11-21T03:10:40;10.80;86.30
71184;DHT22;58887;51.980;4.464;2023-11-21T03:13:05;10.80;86.29
71184;DHT22;58887;51.980;4.464;2023-11-21T03:15:30;10.79;86.31
71184;DHT22;58887;51.980;4.464;2023-11-21T03:17:58;10.81;86.40
71184;DHT22;58887;51.980;4.464;2023-11-21T03:20:24;10.84;86.37
71184;DHT22;58887;51.980;4.464;2023-11-21T03:22:50;10.84;86.32
71184;DHT22;58887;51.980;4.464;2023-11-21T03:25:16;10.90;86.39
71184;DHT22;58887;51.980;4.464;2023-11-21T03:27:42;10.91;86.38
71184;DHT22;58887;51.980;4.464;2023-11-21T03:30:09;10.93;86.33
71184;DHT22;58887;51.980;4.464;2023-11-21T03:32:36;10.94;86.39
71184;DHT22;58887;51.980;4.464;2023-11-21T03:35:02;11.00;86.63
71184;DHT22;58887;51.980;4.464;2023-11-21T03:37:28;11.04;86.44
71184;DHT22;58887;51.980;4.464;2023-11-21T03:39:55;11.04;86.32
71184;DHT22;58887;51.980;4.464;2023-11-21T03:42:21;10.99;86.26
71184;DHT22;58887;51.980;4.464;2023-11-21T03:44:47;11.00;86.49
71184;DHT22;58887;51.980;4.464;2023-11-21T03:47:12;11.04;86.81
71184;DHT22;58887;51.980;4.464;2023-11-21T03:49:38;11.04;86.92
71184;DHT22;58887;51.980;4.464;2023-11-21T03:52:04;11.11;86.87
71184;DHT22;58887;51.980;4.464;2023-11-21T03:54:29;11.15;86.72
71184;DHT22;58887;51.980;4.464;2023-11-21T03:56:55;11.15;86.72
71184;DHT22;58887;51.980;4.464;2023-11-21T03:59:21;11.20;86.57
71184;DHT22;58887;51.980;4.464;2023-11-21T04:01:50;11.20;86.61
71184;DHT22;58887;51.980;4.464;2023-11-21T04:04:15;11.21;86.56
71184;DHT22;58887;51.980;4.464;2023-11-21T04:06:41;11.25;86.61
71184;DHT22;58887;51.980;4.464;2023-11-21T04:09:06;11.28;86.57
71184;DHT22;58887;51.980;4.464;2023-11-21T04:11:32;11.31;86.70
71184;DHT22;58887;51.980;4.464;2023-11-21T04:13:57;11.35;86.54
71184;DHT22;58887;51.980;4.464;2023-11-21T04:16:23;11.35;86.56
71184;DHT22;58887;51.980;4.464;2023-11-21T04:18:49;11.43;86.61
71184;DHT22;58887;51.980;4.464;2023-11-21T04:21:14;11.48;86.58
71184;DHT22;58887;51.980;4.464;2023-11-21T04:23:40;11.52;86.49
71184;DHT22;58887;51.980;4.464;2023-11-21T04:26:05;11.49;86.31
71184;DHT22;58887;51.980;4.464;2023-11-21T04:28:32;11.43;86.44
71184;DHT22;58887;51.980;4.464;2023-11-21T04:30:58;11.43;86.54
71184;DHT22;58887;51.980;4.464;2023-11-21T04:33:24;11.36;86.25
71184;DHT22;58887;51.980;4.464;2023-11-21T04:35:51;11.36;86.33
71184;DHT22;58887;51.980;4.464;2023-11-21T04:38:16;11.36;86.43
71184;DHT22;58887;51.980;4.464;2023-11-21T04:40:41;11.35;86.43
71184;DHT22;58887;51.980;4.464;2023-11-21T04:43:07;11.35;86.60
71184;DHT22;58887;51.980;4.464;2023-11-21T04:45:32;11.35;86.61
71184;DHT22;58887;51.980;4.464;2023-11-21T04:47:58;11.38;86.65
71184;DHT22;58887;51.980;4.464;2023-11-21T04:50:23;11.39;86.77
71184;DHT22;58887;51.980;4.464;2023-11-21T04:52:51;11.41;86.80
71184;DHT22;58887;51.980;4.464;2023-11-21T04:55:16;11.42;86.71
71184;DHT22;58887;51.980;4.464;2023-11-21T04:57:43;11.45;86.71
71184;DHT22;58887;51.980;4.464;2023-11-21T05:00:09;11.45;86.63
71184;DHT22;58887;51.980;4.464;2023-11-21T05:02:35;11.51;86.69
71184;DHT22;58887;51.980;4.464;2023-11-21T05:05:04;11.49;86.69
71184;DHT22;58887;51.980;4.464;2023-11-21T05:07:32;11.46;86.55
71184;DHT22;58887;51.980;4.464;2023-11-21T05:09:57;11.42;86.42
71184;DHT22;58887;51.980;4.464;2023-11-21T05:12:24;11.34;86.44
71184;DHT22;58887;51.980;4.464;2023-11-21T05:14:50;11.25;86.33
71184;DHT22;58887;51.980;4.464;2023-11-21T05:17:15;11.21;86.43
71184;DHT22;58887;51.980;4.464;2023-11-21T05:19:41;11.17;86.34
71184;DHT22;58887;51.980;4.464;2023-11-21T05:22:07;11.08;86.22
71184;DHT22;58887;51.980;4.464;2023-11-21T05:24:34;10.97;86.18
71184;DHT22;58887;51.980;4.464;2023-11-21T05:27:00;10.90;85.96
71184;DHT22;58887;51.980;4.464;2023-11-21T05:29:25;10.81;86.08
71184;DHT22;58887;51.980;4.464;2023-11-21T05:31:51;10.76;86.24
71184;DHT22;58887;51.980;4.464;2023-11-21T05:34:18;10.77;86.40
71184;DHT22;58887;51.980;4.464;2023-11-21T05:36:43;10.71;86.27
71184;DHT22;58887;51.980;4.464;2023-11-21T05:39:11;10.66;86.07
71184;DHT22;58887;51.980;4.464;2023-11-21T05:41:36;10.57;85.97
71184;DHT22;58887;51.980;4.464;2023-11-21T05:44:02;10.50;86.35
71184;DHT22;58887;51.980;4.464;2023-11-21T05:46:27;10.50;86.63
71184;DHT22;58887;51.980;4.464;2023-11-21T05:48:53;10.55;87.70
71184;DHT22;58887;51.980;4.464;2023-11-21T05:51:18;10.60;87.34
71184;DHT22;58887;51.980;4.464;2023-11-21T05:53:44;10.63;87.16
71184;DHT22;58887;51.980;4.464;2023-11-21T05:56:09;10.62;86.98
71184;DHT22;58887;51.980;4.464;2023-11-21T05:58:35;10.62;86.89
71184;DHT22;58887;51.980;4.464;2023-11-21T06:01:00;10.62;87.06
71184;DHT22;58887;51.980;4.464;2023-11-21T06:03:25;10.63;87.10
71184;DHT22;58887;51.980;4.464;2023-11-21T06:05:51;10.66;87.21
71184;DHT22;58887;51.980;4.464;2023-11-21T06:08:16;10.69;87.32
71184;DHT22;58887;51.980;4.464;2023-11-21T06:10:42;10.80;87.52
71184;DHT22;58887;51.980;4.464;2023-11-21T06:13:09;10.84;87.56
71184;DHT22;58887;51.980;4.464;2023-11-21T06:15:36;10.90;87.91
71184;DHT22;58887;51.980;4.464;2023-11-21T06:18:01;11.01;87.87
71184;DHT22;58887;51.980;4.464;2023-11-21T06:20:27;11.03;87.84
71184;DHT22;58887;51.980;4.464;2023-11-21T06:22:52;11.11;87.69
71184;DHT22;58887;51.980;4.464;2023-11-21T06:25:19;11.08;87.56
71184;DHT22;58887;51.980;4.464;2023-11-21T06:27:46;11.14;87.72
71184;DHT22;58887;51.980;4.464;2023-11-21T06:30:13;11.17;87.56
71184;DHT22;58887;51.980;4.464;2023-11-21T06:32:41;11.17;87.19
71184;DHT22;58887;51.980;4.464;2023-11-21T06:35:07;11.07;86.88
71184;DHT22;58887;51.980;4.464;2023-11-21T06:37:35;10.91;86.78
71184;DHT22;58887;51.980;4.464;2023-11-21T06:40:01;10.80;86.93
71184;DHT22;58887;51.980;4.464;2023-11-21T06:42:29;10.79;86.78
71184;DHT22;58887;51.980;4.464;2023-11-21T06:44:55;10.70;86.69
71184;DHT22;58887;51.980;4.464;2023-11-21T06:47:23;10.66;86.63
71184;DHT22;58887;51.980;4.464;2023-11-21T06:49:51;10.55;86.54
71184;DHT22;58887;51.980;4.464;2023-11-21T06:52:17;10.46;86.52
71184;DHT22;58887;51.980;4.464;2023-11-21T06:54:45;10.39;86.64
71184;DHT22;58887;51.980;4.464;2023-11-21T06:57:11;10.33;86.57
71184;DHT22;58887;51.980;4.464;2023-11-21T06:59:37;10.28;86.38
71184;DHT22;58887;51.980;4.464;2023-11-21T07:02:02;10.23;86.30
71184;DHT22;58887;51.980;4.464;2023-11-21T07:04:28;10.12;86.74
71184;DHT22;58887;51.980;4.464;2023-11-21T07:06:54;10.11;87.23
71184;DHT22;58887;51.980;4.464;2023-11-21T07:09:20;10.22;87.86
71184;DHT22;58887;51.980;4.464;2023-11-21T07:11:49;10.26;87.84
71184;DHT22;58887;51.980;4.464;2023-11-21T07:14:15;10.33;87.97
71184;DHT22;58887;51.980;4.464;2023-11-21T07:16:43;10.48;88.40
71184;DHT22;58887;51.980;4.464;2023-11-21T07:19:09;10.60;88.53
71184;DHT22;58887;51.980;4.464;2023-11-21T07:21:36;10.70;88.40
71184;DHT22;58887;51.980;4.464;2023-11-21T07:24:03;10.73;88.76
71184;DHT22;58887;51.980;4.464;2023-11-21T07:26:32;10.84;88.62
71184;DHT22;58887;51.980;4.464;2023-11-21T07:28:59;10.93;88.60
71184;DHT22;58887;51.980;4.464;2023-11-21T07:31:27;10.93;89.26
71184;DHT22;58887;51.980;4.464;2023-11-21T07:33:54;11.03;89.23
71184;DHT22;58887;51.980;4.464;2023-11-21T07:36:23;11.04;89.28
71184;DHT22;58887;51.980;4.464;2023-11-21T07:38:49;11.08;89.36
71184;DHT22;58887;51.980;4.464;2023-11-21T07:41:15;11.12;89.20
71184;DHT22;58887;51.980;4.464;2023-11-21T07:43:41;11.21;89.08
71184;DHT22;58887;51.980;4.464;2023-11-21T07:46:07;11.24;88.91
71184;DHT22;58887;51.980;4.464;2023-11-21T07:48:34;11.27;88.73
71184;DHT22;58887;51.980;4.464;2023-11-21T07:51:01;11.35;88.75
71184;DHT22;58887;51.980;4.464;2023-11-21T07:53:29;11.46;88.55
71184;DHT22;58887;51.980;4.464;2023-11-21T07:56:02;11.43;88.30
71184;DHT22;58887;51.980;4.464;2023-11-21T07:58:28;11.58;88.52
71184;DHT22;58887;51.980;4.464;2023-11-21T08:00:53;11.65;88.16
71184;DHT22;58887;51.980;4.464;2023-11-21T08:03:19;11.79;88.05
71184;DHT22;58887;51.980;4.464;2023-11-21T08:05:44;11.70;87.67
71184;DHT22;58887;51.980;4.464;2023-11-21T08:08:10;11.62;88.08
71184;DHT22;58887;51.980;4.464;2023-11-21T08:10:36;11.73;88.02
71184;DHT22;58887;51.980;4.464;2023-11-21T08:13:02;11.83;87.86
71184;DHT22;58887;51.980;4.464;2023-11-21T08:15:29;11.91;87.59
71184;DHT22;58887;51.980;4.464;2023-11-21T08:17:57;11.85;87.23
71184;DHT22;58887;51.980;4.464;2023-11-21T08:20:22;11.83;87.47
71184;DHT22;58887;51.980;4.464;2023-11-21T08:22:48;11.93;87.49
71184;DHT22;58887;51.980;4.464;2023-11-21T08:25:13;12.04;87.11
71184;DHT22;58887;51.980;4.464;2023-11-21T08:27:39;11.90;87.14
71184;DHT22;58887;51.980;4.464;2023-11-21T08:30:05;11.91;87.17
71184;DHT22;58887;51.980;4.464;2023-11-21T08:32:31;12.04;87.29
71184;DHT22;58887;51.980;4.464;2023-11-21T08:34:59;12.04;86.89
71184;DHT22;58887;51.980;4.464;2023-11-21T08:37:25;12.07;86.55
71184;DHT22;58887;51.980;4.464;2023-11-21T08:39:52;11.97;86.64
71184;DHT22;58887;51.980;4.464;2023-11-21T08:42:18;12.19;86.78
71184;DHT22;58887;51.980;4.464;2023-11-21T08:44:44;12.16;86.40
71184;DHT22;58887;51.980;4.464;2023-11-21T08:47:09;12.17;86.16
71184;DHT22;58887;51.980;4.464;2023-11-21T08:49:35;12.26;86.19
71184;DHT22;58887;51.980;4.464;2023-11-21T08:52:00;12.40;85.92
71184;DHT22;58887;51.980;4.464;2023-11-21T08:54:26;12.59;85.76
71184;DHT22;58887;51.980;4.464;2023-11-21T08:56:54;12.54;85.35
71184;DHT22;58887;51.980;4.464;2023-11-21T08:59:26;12.54;85.62
71184;DHT22;58887;51.980;4.464;2023-11-21T09:01:52;12.41;85.45
71184;DHT22;58887;51.980;4.464;2023-11-21T09:04:17;12.36;85.50
71184;DHT22;58887;51.980;4.464;2023-11-21T09:06:43;12.24;85.94
71184;DHT22;58887;51.980;4.464;2023-11-21T09:09:08;12.31;85.74
71184;DHT22;58887;51.980;4.464;2023-11-21T09:11:36;12.19;85.83
71184;DHT22;58887;51.980;4.464;2023-11-21T09:14:03;12.20;86.09
71184;DHT22;58887;51.980;4.464;2023-11-21T09:16:31;12.16;85.81
71184;DHT22;58887;51.980;4.464;2023-11-21T09:18:57;12.09;86.05
71184;DHT22;58887;51.980;4.464;2023-11-21T09:21:22;12.07;86.28
71184;DHT22;58887;51.980;4.464;2023-11-21T09:23:48;12.01;86.41
71184;DHT22;58887;51.980;4.464;2023-11-21T09:26:14;12.12;86.36
71184;DHT22;58887;51.980;4.464;2023-11-21T09:28:42;12.06;86.29
71184;DHT22;58887;51.980;4.464;2023-11-21T09:31:12;12.09;86.47
71184;DHT22;58887;51.980;4.464;2023-11-21T09:33:37;12.19;86.06
71184;DHT22;58887;51.980;4.464;2023-11-21T09:36:04;12.26;86.16
71184;DHT22;58887;51.980;4.464;2023-11-21T09:38:30;12.12;86.29
71184;DHT22;58887;51.980;4.464;2023-11-21T09:40:56;12.06;86.69
71184;DHT22;58887;51.980;4.464;2023-11-21T09:43:24;12.00;86.75
71184;DHT22;58887;51.980;4.464;2023-11-21T09:45:59;11.94;86.80
71184;DHT22;58887;51.980;4.464;2023-11-21T09:48:26;11.93;86.80
71184;DHT22;58887;51.980;4.464;2023-11-21T09:50:53;11.99;86.47
71184;DHT22;58887;51.980;4.464;2023-11-21T09:53:20;11.94;86.68
71184;DHT22;58887;51.980;4.464;2023-11-21T09:55:48;12.13;86.73
71184;DHT22;58887;51.980;4.464;2023-11-21T09:58:16;12.10;86.47
71184;DHT22;58887;51.980;4.464;2023-11-21T10:00:47;11.96;86.52
71184;DHT22;58887;51.980;4.464;2023-11-21T10:03:13;12.04;86.67
71184;DHT22;58887;51.980;4.464;2023-11-21T10:05:41;12.13;86.44
71184;DHT22;58887;51.980;4.464;2023-11-21T10:08:10;12.01;86.48
71184;DHT22;58887;51.980;4.464;2023-11-21T10:10:43;12.14;86.24
71184;DHT22;58887;51.980;4.464;2023-11-21T10:13:12;12.09;86.19
71184;DHT22;58887;51.980;4.464;2023-11-21T10:15:38;12.00;86.47
71184;DHT22;58887;51.980;4.464;2023-11-21T10:18:07;11.99;86.34
71184;DHT22;58887;51.980;4.464;2023-11-21T10:20:33;11.97;86.40
71184;DHT22;58887;51.980;4.464;2023-11-21T10:22:59;12.03;86.59
71184;DHT22;58887;51.980;4.464;2023-11-21T10:25:27;12.16;86.30
71184;DHT22;58887;51.980;4.464;2023-11-21T10:28:00;11.86;86.23
71184;DHT22;58887;51.980;4.464;2023-11-21T10:30:37;11.85;86.36
71184;DHT22;58887;51.980;4.464;2023-11-21T10:33:07;11.82;86.33
71184;DHT22;58887;51.980;4.464;2023-11-21T10:38:05;12.00;85.62
71184;DHT22;58887;51.980;4.464;2023-11-21T10:40:31;11.99;85.83
71184;DHT22;58887;51.980;4.464;2023-11-21T10:43:06;12.04;85.57
71184;DHT22;58887;51.980;4.464;2023-11-21T10:45:31;11.89;85.73
71184;DHT22;58887;51.980;4.464;2023-11-21T10:47:57;11.91;85.96
71184;DHT22;58887;51.980;4.464;2023-11-21T10:50:23;11.91;86.03
71184;DHT22;58887;51.980;4.464;2023-11-21T10:52:49;11.94;86.07
71184;DHT22;58887;51.980;4.464;2023-11-21T10:55:21;11.94;86.13
71184;DHT22;58887;51.980;4.464;2023-11-21T10:57:52;12.04;85.89
71184;DHT22;58887;51.980;4.464;2023-11-21T11:00:19;12.10;85.88
71184;DHT22;58887;51.980;4.464;2023-11-21T11:02:51;12.17;85.75
71184;DHT22;58887;51.980;4.464;2023-11-21T11:05:21;12.01;85.74
71184;DHT22;58887;51.980;4.464;2023-11-21T11:07:55;11.99;85.91
71184;DHT22;58887;51.980;4.464;2023-11-21T11:10:26;12.07;85.94
71184;DHT22;58887;51.980;4.464;2023-11-21T11:12:53;12.09;85.74
71184;DHT22;58887;51.980;4.464;2023-11-21T11:15:19;12.12;85.70
71184;DHT22;58887;51.980;4.464;2023-11-21T11:17:45;12.01;86.04
71184;DHT22;58887;51.980;4.464;2023-11-21T11:20:14;11.96;85.96
71184;DHT22;58887;51.980;4.464;2023-11-21T11:25:52;11.87;86.16
71184;DHT22;58887;51.980;4.464;2023-11-21T11:28:21;11.94;86.04
71184;DHT22;58887;51.980;4.464;2023-11-21T11:33:54;12.23;85.74
71184;DHT22;58887;51.980;4.464;2023-11-21T11:38:49;12.21;85.31
71184;DHT22;58887;51.980;4.464;2023-11-21T11:41:31;12.20;85.27
71184;DHT22;58887;51.980;4.464;2023-11-21T11:44:00;12.31;84.97
71184;DHT22;58887;51.980;4.464;2023-11-21T11:46:43;12.36;84.70
71184;DHT22;58887;51.980;4.464;2023-11-21T11:49:10;12.21;84.89
71184;DHT22;58887;51.980;4.464;2023-11-21T11:51:37;12.09;84.90
71184;DHT22;58887;51.980;4.464;2023-11-21T11:54:02;12.16;84.76
71184;DHT22;58887;51.980;4.464;2023-11-21T11:56:32;12.19;84.81
71184;DHT22;58887;51.980;4.464;2023-11-21T11:59:01;12.16;84.47
71184;DHT22;58887;51.980;4.464;2023-11-21T12:01:35;12.17;84.37
71184;DHT22;58887;51.980;4.464;2023-11-21T12:07:00;12.31;84.33
71184;DHT22;58887;51.980;4.464;2023-11-21T12:09:28;12.10;84.24
71184;DHT22;58887;51.980;4.464;2023-11-21T12:11:54;12.06;84.33
71184;DHT22;58887;51.980;4.464;2023-11-21T12:14:22;12.12;84.14
71184;DHT22;58887;51.980;4.464;2023-11-21T12:16:48;12.03;84.53
71184;DHT22;58887;51.980;4.464;2023-11-21T12:19:14;12.14;84.30
71184;DHT22;58887;51.980;4.464;2023-11-21T12:21:40;12.04;84.37
71184;DHT22;58887;51.980;4.464;2023-11-21T12:24:14;11.97;84.56
71184;DHT22;58887;51.980;4.464;2023-11-21T12:26:40;11.97;84.64
71184;DHT22;58887;51.980;4.464;2023-11-21T12:29:06;12.09;84.39
71184;DHT22;58887;51.980;4.464;2023-11-21T12:31:33;12.06;83.87
71184;DHT22;58887;51.980;4.464;2023-11-21T12:33:59;12.20;83.92
71184;DHT22;58887;51.980;4.464;2023-11-21T12:36:25;12.28;83.86
71184;DHT22;58887;51.980;4.464;2023-11-21T12:38:51;12.27;83.87
71184;DHT22;58887;51.980;4.464;2023-11-21T12:41:16;12.28;83.25
71184;DHT22;58887;51.980;4.464;2023-11-21T12:43:42;12.28;82.61
71184;DHT22;58887;51.980;4.464;2023-11-21T12:46:10;12.16;82.91
71184;DHT22;58887;51.980;4.464;2023-11-21T12:48:44;12.13;82.91
71184;DHT22;58887;51.980;4.464;2023-11-21T12:51:10;12.04;83.04
71184;DHT22;58887;51.980;4.464;2023-11-21T12:53:44;12.09;82.94
71184;DHT22;58887;51.980;4.464;2023-11-21T12:56:13;12.03;82.80
71184;DHT22;58887;51.980;4.464;2023-11-21T12:58:40;12.01;82.89
71184;DHT22;58887;51.980;4.464;2023-11-21T13:01:10;12.04;82.85
71184;DHT22;58887;51.980;4.464;2023-11-21T13:03:40;12.07;82.54
71184;DHT22;58887;51.980;4.464;2023-11-21T13:06:07;12.12;82.41
71184;DHT22;58887;51.980;4.464;2023-11-21T13:08:33;12.07;82.31
71184;DHT22;58887;51.980;4.464;2023-11-21T13:10:59;12.16;82.41
71184;DHT22;58887;51.980;4.464;2023-11-21T13:13:26;12.23;82.04
71184;DHT22;58887;51.980;4.464;2023-11-21T13:15:59;12.31;81.67
71184;DHT22;58887;51.980;4.464;2023-11-21T13:18:31;12.33;81.83
71184;DHT22;58887;51.980;4.464;2023-11-21T13:20:58;12.41;81.99
71184;DHT22;58887;51.980;4.464;2023-11-21T13:23:25;12.31;81.61
71184;DHT22;58887;51.980;4.464;2023-11-21T13:25:54;12.20;81.81
71184;DHT22;58887;51.980;4.464;2023-11-21T13:28:20;12.14;81.55
71184;DHT22;58887;51.980;4.464;2023-11-21T13:30:50;12.09;81.66
71184;DHT22;58887;51.980;4.464;2023-11-21T13:33:18;12.03;81.27
71184;DHT22;58887;51.980;4.464;2023-11-21T13:35:47;12.16;81.71
71184;DHT22;58887;51.980;4.464;2023-11-21T13:38:16;12.27;81.46
71184;DHT22;58887;51.980;4.464;2023-11-21T13:40:47;12.28;81.07
71184;DHT22;58887;51.980;4.464;2023-11-21T13:43:16;12.20;80.97
71184;DHT22;58887;51.980;4.464;2023-11-21T13:45:44;12.27;81.15
71184;DHT22;58887;51.980;4.464;2023-11-21T13:48:12;12.26;81.14
71184;DHT22;58887;51.980;4.464;2023-11-21T13:50:45;12.23;81.13
71184;DHT22;58887;51.980;4.464;2023-11-21T13:53:22;12.26;81.23
71184;DHT22;58887;51.980;4.464;2023-11-21T13:55:54;12.24;81.28
71184;DHT22;58887;51.980;4.464;2023-11-21T13:58:21;12.20;81.36
71184;DHT22;58887;51.980;4.464;2023-11-21T14:01:05;12.13;81.46
71184;DHT22;58887;51.980;4.464;2023-11-21T14:03:38;12.20;81.64
71184;DHT22;58887;51.980;4.464;2023-11-21T14:06:15;12.19;81.43
71184;DHT22;58887;51.980;4.464;2023-11-21T14:08:47;12.03;82.03
71184;DHT22;58887;51.980;4.464;2023-11-21T14:11:13;12.00;81.72
71184;DHT22;58887;51.980;4.464;2023-11-21T14:13:43;11.96;81.99
71184;DHT22;58887;51.980;4.464;2023-11-21T14:16:11;11.86;82.16
71184;DHT22;58887;51.980;4.464;2023-11-21T14:18:39;11.73;81.86
71184;DHT22;58887;51.980;4.464;2023-11-21T14:21:21;11.82;81.97
71184;DHT22;58887;51.980;4.464;2023-11-21T14:23:47;11.87;81.66
71184;DHT22;58887;51.980;4.464;2023-11-21T14:26:13;11.91;81.55
71184;DHT22;58887;51.980;4.464;2023-11-21T14:28:41;11.87;81.94
71184;DHT22;58887;51.980;4.464;2023-11-21T14:31:07;11.99;81.65
71184;DHT22;58887;51.980;4.464;2023-11-21T14:33:36;12.07;81.53
71184;DHT22;58887;51.980;4.464;2023-11-21T14:36:02;11.87;81.64
71184;DHT22;58887;51.980;4.464;2023-11-21T14:38:27;11.76;81.88
71184;DHT22;58887;51.980;4.464;2023-11-21T14:40:53;11.72;82.50
71184;DHT22;58887;51.980;4.464;2023-11-21T14:43:18;11.76;82.25
71184;DHT22;58887;51.980;4.464;2023-11-21T14:45:45;11.70;82.16
71184;DHT22;58887;51.980;4.464;2023-11-21T14:48:10;11.51;82.06
71184;DHT22;58887;51.980;4.464;2023-11-21T14:50:51;11.49;82.67
71184;DHT22;58887;51.980;4.464;2023-11-21T14:53:37;11.45;82.83
71184;DHT22;58887;51.980;4.464;2023-11-21T14:56:22;11.43;82.89
71184;DHT22;58887;51.980;4.464;2023-11-21T14:58:58;11.36;83.12
71184;DHT22;58887;51.980;4.464;2023-11-21T15:01:41;11.32;83.01
71184;DHT22;58887;51.980;4.464;2023-11-21T15:04:21;11.17;83.48
71184;DHT22;58887;51.980;4.464;2023-11-21T15:06:59;11.14;83.40
71184;DHT22;58887;51.980;4.464;2023-11-21T15:09:25;11.18;83.32
71184;DHT22;58887;51.980;4.464;2023-11-21T15:12:02;11.22;83.46
71184;DHT22;58887;51.980;4.464;2023-11-21T15:14:38;11.17;83.18
71184;DHT22;58887;51.980;4.464;2023-11-21T15:17:04;11.10;83.38
71184;DHT22;58887;51.980;4.464;2023-11-21T15:19:30;11.20;83.07
71184;DHT22;58887;51.980;4.464;2023-11-21T15:21:57;11.12;83.32
71184;DHT22;58887;51.980;4.464;2023-11-21T15:24:23;11.03;83.21
71184;DHT22;58887;51.980;4.464;2023-11-21T15:26:50;11.17;83.32
71184;DHT22;58887;51.980;4.464;2023-11-21T15:29:15;11.20;82.96
71184;DHT22;58887;51.980;4.464;2023-11-21T15:31:42;11.12;82.54
71184;DHT22;58887;51.980;4.464;2023-11-21T15:34:14;11.10;82.53
71184;DHT22;58887;51.980;4.464;2023-11-21T15:36:39;11.08;82.70
71184;DHT22;58887;51.980;4.464;2023-11-21T15:39:04;11.17;82.06
71184;DHT22;58887;51.980;4.464;2023-11-21T15:41:30;11.10;82.12
71184;DHT22;58887;51.980;4.464;2023-11-21T15:43:55;11.01;81.85
71184;DHT22;58887;51.980;4.464;2023-11-21T15:46:21;10.90;81.79